Time;durP1;ratioP1;P1;durP2;ratioP2;P2;SDS_P1;SDS_P2;PMS_P1;PMS_P2;Temp;Humidity;BMP_temperature;BMP_pressure;BME280_temperature;BME280_humidity;BME280_pressure;Samples;Min_cycle;Max_cycle;Signal;HPM_P1;HPM_P2
2023/09/18 00:02:18;;;;;;;8.02;6.28;;;17.90;99.90;;;;;;5017898;28;20391;-54
2023/09/18 00:04:44;;;;;;;7.15;6.15;;;17.80;99.90;;;;;;5021845;28;20034;-54
2023/09/18 00:07:10;;;;;;;6.63;5.80;;;17.80;99.90;;;;;;5027642;28;20025;-54
2023/09/18 00:09:36;;;;;;;8.05;6.60;;;17.80;99.90;;;;;;5020333;28;20026;-54
2023/09/18 00:12:01;;;;;;;6.93;6.25;;;17.70;99.90;;;;;;5019694;28;20055;-54
2023/09/18 00:14:27;;;;;;;6.93;6.22;;;17.70;99.90;;;;;;5034046;28;20061;-54
2023/09/18 00:16:52;;;;;;;7.15;6.45;;;17.70;99.90;;;;;;5023886;28;20034;-54
2023/09/18 00:19:18;;;;;;;7.75;6.82;;;17.70;99.90;;;;;;5019252;28;20045;-54
2023/09/18 00:21:44;;;;;;;7.97;6.10;;;17.70;99.90;;;;;;5017792;28;20018;-54
2023/09/18 00:24:11;;;;;;;7.63;6.50;;;17.70;99.90;;;;;;5021558;28;20068;-54
2023/09/18 00:26:37;;;;;;;7.03;6.32;;;17.60;99.90;;;;;;5017279;28;20014;-54
2023/09/18 00:29:02;;;;;;;9.15;6.97;;;17.60;99.90;;;;;;5042135;28;20028;-54
2023/09/18 00:31:28;;;;;;;6.70;6.10;;;17.60;99.90;;;;;;5014705;28;20436;-54
2023/09/18 00:33:53;;;;;;;7.43;6.13;;;17.50;99.90;;;;;;5021330;28;20056;-54
2023/09/18 00:36:19;;;;;;;7.63;6.82;;;17.50;99.90;;;;;;5020889;28;20576;-54
2023/09/18 00:38:44;;;;;;;7.28;6.07;;;17.50;99.90;;;;;;5019846;28;20036;-54
2023/09/18 00:41:10;;;;;;;7.97;6.55;;;17.50;99.90;;;;;;5018797;28;20057;-54
2023/09/18 00:43:35;;;;;;;6.72;6.13;;;17.50;99.90;;;;;;5018666;28;20071;-53
2023/09/18 00:46:01;;;;;;;6.93;6.13;;;17.40;99.90;;;;;;5020369;28;20253;-54
2023/09/18 00:48:28;;;;;;;6.80;6.10;;;17.40;99.90;;;;;;5015770;28;20032;-54
2023/09/18 00:50:54;;;;;;;9.98;7.32;;;17.40;99.90;;;;;;5018629;28;20407;-54
2023/09/18 00:53:23;;;;;;;8.68;6.88;;;17.40;99.90;;;;;;5022777;28;20029;-54
2023/09/18 00:55:53;;;;;;;6.75;6.15;;;17.40;99.90;;;;;;5044067;28;20029;-54
2023/09/18 00:58:18;;;;;;;7.55;6.72;;;17.50;99.90;;;;;;5024868;28;20418;-54
2023/09/18 01:00:45;;;;;;;9.15;7.75;;;17.40;99.90;;;;;;5025438;28;20028;-54
2023/09/18 01:03:11;;;;;;;10.25;7.18;;;17.40;99.90;;;;;;5021783;28;20398;-54
2023/09/18 01:05:36;;;;;;;7.60;6.80;;;17.40;99.90;;;;;;5022891;28;20026;-55
2023/09/18 01:08:02;;;;;;;8.25;6.78;;;17.40;99.90;;;;;;5024113;28;20029;-54
2023/09/18 01:10:40;;;;;;;7.80;7.00;;;17.40;99.90;;;;;;5020021;28;20018;-54
2023/09/18 01:13:13;;;;;;;8.18;6.97;;;17.40;99.90;;;;;;5021683;28;20041;-54
2023/09/18 01:15:53;;;;;;;8.73;7.50;;;17.40;99.90;;;;;;5019891;28;20025;-55
2023/09/18 01:18:18;;;;;;;8.40;7.57;;;17.30;99.90;;;;;;5014148;28;20041;-55
2023/09/18 01:20:44;;;;;;;7.72;7.00;;;17.30;99.90;;;;;;5023245;28;20033;-54
2023/09/18 01:23:11;;;;;;;8.50;7.55;;;17.30;99.90;;;;;;5015324;28;20108;-54
2023/09/18 01:25:37;;;;;;;8.85;7.95;;;17.30;99.90;;;;;;5014797;28;20536;-54
2023/09/18 01:28:03;;;;;;;8.60;7.70;;;17.30;99.90;;;;;;5018567;28;20117;-54
2023/09/18 01:30:29;;;;;;;8.32;7.43;;;17.30;99.90;;;;;;5011331;28;20544;-54
2023/09/18 01:32:56;;;;;;;8.02;7.22;;;17.30;99.90;;;;;;5020236;28;20037;-54
2023/09/18 01:35:28;;;;;;;7.78;7.03;;;17.30;99.90;;;;;;5041473;28;20030;-54
2023/09/18 01:37:55;;;;;;;9.70;7.57;;;17.20;99.90;;;;;;5022861;28;20028;-54
2023/09/18 01:40:21;;;;;;;8.57;7.43;;;17.10;99.90;;;;;;5024283;28;20114;-57
2023/09/18 01:42:47;;;;;;;8.25;7.43;;;17.10;99.90;;;;;;5025179;28;20048;-55
2023/09/18 01:45:13;;;;;;;8.23;7.05;;;17.10;99.90;;;;;;5021446;28;20022;-54
2023/09/18 01:47:38;;;;;;;8.75;7.25;;;17.00;99.90;;;;;;5022571;28;20026;-55
2023/09/18 01:50:05;;;;;;;8.98;7.35;;;17.00;99.90;;;;;;5025910;28;20522;-55
2023/09/18 01:52:31;;;;;;;9.68;7.70;;;17.00;99.90;;;;;;5024974;28;20025;-55
2023/09/18 01:54:56;;;;;;;8.25;7.45;;;17.10;99.90;;;;;;5028018;28;20386;-54
2023/09/18 01:57:22;;;;;;;8.38;7.03;;;17.00;99.90;;;;;;5026099;28;20037;-54
2023/09/18 01:59:47;;;;;;;8.57;7.43;;;17.00;99.90;;;;;;5018366;28;20091;-54
2023/09/18 02:02:13;;;;;;;10.90;8.13;;;17.00;99.90;;;;;;5014522;28;20046;-55
2023/09/18 02:04:39;;;;;;;8.25;7.45;;;17.00;99.90;;;;;;5015845;28;20105;-54
2023/09/18 02:07:05;;;;;;;8.50;7.50;;;17.00;99.90;;;;;;5016151;28;20118;-54
2023/09/18 02:09:31;;;;;;;8.98;7.28;;;16.90;99.90;;;;;;5020549;28;20105;-54
2023/09/18 02:11:57;;;;;;;9.95;7.65;;;16.90;99.90;;;;;;5033646;28;20120;-54
2023/09/18 02:14:22;;;;;;;11.98;7.25;;;16.90;99.90;;;;;;5021196;28;20322;-55
2023/09/18 02:16:49;;;;;;;9.07;8.10;;;16.90;99.90;;;;;;5019373;28;20022;-53
2023/09/18 02:19:14;;;;;;;8.75;7.85;;;16.80;99.90;;;;;;5019519;28;20159;-53
2023/09/18 02:21:41;;;;;;;8.70;7.90;;;16.80;99.90;;;;;;5024150;28;20480;-53
2023/09/18 02:24:07;;;;;;;7.90;7.10;;;16.80;99.90;;;;;;5021175;28;20092;-52
2023/09/18 02:26:32;;;;;;;9.60;7.88;;;16.80;99.90;;;;;;5027138;28;20088;-52
2023/09/18 02:29:03;;;;;;;8.77;7.88;;;16.80;99.90;;;;;;5022834;28;20030;-54
2023/09/18 02:31:29;;;;;;;8.60;7.70;;;16.80;99.90;;;;;;5026791;28;20470;-55
2023/09/18 02:33:54;;;;;;;10.07;7.00;;;16.80;99.90;;;;;;5031039;28;20116;-55
2023/09/18 02:36:20;;;;;;;8.30;7.45;;;16.80;99.90;;;;;;5028877;28;20415;-55
2023/09/18 02:38:45;;;;;;;8.95;8.05;;;16.70;99.90;;;;;;5037854;28;20035;-55
2023/09/18 02:41:11;;;;;;;8.90;7.40;;;16.70;99.90;;;;;;5024277;28;20033;-55
2023/09/18 02:43:39;;;;;;;7.85;7.13;;;16.70;99.90;;;;;;5027897;28;20402;-55
2023/09/18 02:46:06;;;;;;;9.40;7.65;;;16.80;99.90;;;;;;5028329;28;20041;-55
2023/09/18 02:48:32;;;;;;;9.68;8.48;;;16.80;99.90;;;;;;5024016;28;20018;-55
2023/09/18 02:51:02;;;;;;;9.07;8.05;;;16.80;99.90;;;;;;5027394;28;20398;-55
2023/09/18 02:53:28;;;;;;;8.47;7.17;;;16.70;99.90;;;;;;5022391;28;20109;-55
2023/09/18 02:55:55;;;;;;;10.32;7.97;;;16.70;99.90;;;;;;5019377;28;20122;-55
2023/09/18 02:58:21;;;;;;;9.98;8.02;;;16.70;99.90;;;;;;5022248;28;20402;-55
2023/09/18 03:00:50;;;;;;;10.27;7.80;;;16.70;99.90;;;;;;5022733;28;20034;-55
2023/09/18 03:03:16;;;;;;;8.68;7.53;;;16.70;99.90;;;;;;5023504;28;20075;-55
2023/09/18 03:05:43;;;;;;;9.95;8.32;;;16.60;99.90;;;;;;5026051;28;20025;-56
2023/09/18 03:08:09;;;;;;;9.18;8.27;;;16.60;99.90;;;;;;5025167;28;20022;-56
2023/09/18 03:10:40;;;;;;;9.70;7.97;;;16.60;99.90;;;;;;5024369;28;20079;-55
2023/09/18 03:13:06;;;;;;;;;;;16.60;99.90;;;;;;5027629;28;20434;-55
2023/09/18 03:15:32;;;;;;;8.80;7.90;;;16.60;99.90;;;;;;5041424;28;20386;-55
2023/09/18 03:17:58;;;;;;;9.77;8.40;;;16.60;99.90;;;;;;5026356;28;20036;-55
2023/09/18 03:20:25;;;;;;;8.52;7.63;;;16.50;99.90;;;;;;5026431;28;20037;-55
2023/09/18 03:22:55;;;;;;;8.70;7.80;;;16.50;99.90;;;;;;5019752;28;20064;-55
2023/09/18 03:25:21;;;;;;;8.15;7.20;;;16.50;99.90;;;;;;5024117;28;20060;-55
2023/09/18 03:27:47;;;;;;;8.85;7.95;;;16.50;99.90;;;;;;5025935;28;20050;-55
2023/09/18 03:30:15;;;;;;;10.70;7.57;;;16.50;99.90;;;;;;5025629;28;20441;-56
2023/09/18 03:32:42;;;;;;;11.55;8.25;;;16.50;99.90;;;;;;5020491;28;20446;-55
2023/09/18 03:35:09;;;;;;;9.15;8.02;;;16.50;99.90;;;;;;5028051;28;20036;-55
2023/09/18 03:37:35;;;;;;;9.10;8.07;;;16.40;99.90;;;;;;5019019;28;20602;-55
2023/09/18 03:40:01;;;;;;;8.68;7.60;;;16.40;99.90;;;;;;5038962;28;20124;-55
2023/09/18 03:42:27;;;;;;;9.32;7.78;;;16.40;99.90;;;;;;5028027;28;20498;-55
2023/09/18 03:44:52;;;;;;;8.30;7.45;;;16.40;99.90;;;;;;5042771;28;20021;-55
2023/09/18 03:47:18;;;;;;;9.20;8.05;;;16.40;99.90;;;;;;5028068;28;20033;-55
2023/09/18 03:49:43;;;;;;;8.30;7.10;;;16.40;99.90;;;;;;5022747;28;20029;-55
2023/09/18 03:52:09;;;;;;;8.98;7.20;;;16.30;99.90;;;;;;5023182;28;20038;-55
2023/09/18 03:54:35;;;;;;;8.95;7.45;;;16.40;99.90;;;;;;5023155;28;20040;-55
2023/09/18 03:57:00;;;;;;;10.52;8.05;;;16.30;99.90;;;;;;5025568;28;20450;-55
2023/09/18 03:59:26;;;;;;;7.80;7.00;;;16.30;99.90;;;;;;5020611;28;20041;-55
2023/09/18 04:01:51;;;;;;;8.95;8.05;;;16.30;99.90;;;;;;5023021;28;20026;-55
2023/09/18 04:04:17;;;;;;;8.95;6.90;;;16.30;99.90;;;;;;5024567;28;20029;-55
2023/09/18 04:06:44;;;;;;;10.07;8.15;;;16.30;99.90;;;;;;5017812;28;20030;-55
2023/09/18 04:09:10;;;;;;;8.77;7.88;;;16.30;99.90;;;;;;5024741;28;20026;-55
2023/09/18 04:11:36;;;;;;;9.82;8.02;;;16.30;99.90;;;;;;5025127;28;20088;-55
2023/09/18 04:14:03;;;;;;;10.38;8.10;;;16.30;99.90;;;;;;5027324;28;20029;-55
2023/09/18 04:16:30;;;;;;;9.57;8.20;;;16.30;99.90;;;;;;5019084;28;20450;-55
2023/09/18 04:18:56;;;;;;;10.00;7.97;;;16.20;99.90;;;;;;5023579;28;20031;-55
2023/09/18 04:21:22;;;;;;;9.55;8.20;;;16.30;99.90;;;;;;5034118;28;20112;-55
2023/09/18 04:23:47;;;;;;;10.15;7.38;;;16.30;99.90;;;;;;5023292;28;20434;-55
2023/09/18 04:26:14;;;;;;;8.80;7.90;;;16.20;99.90;;;;;;5024967;28;20021;-55
2023/09/18 04:28:39;;;;;;;8.93;7.57;;;16.20;99.90;;;;;;5036463;28;20030;-55
2023/09/18 04:31:05;;;;;;;9.85;8.68;;;16.20;99.90;;;;;;5024515;28;20367;-55
2023/09/18 04:33:30;;;;;;;8.93;7.45;;;16.20;99.90;;;;;;5023198;28;20446;-55
2023/09/18 04:35:56;;;;;;;8.18;7.38;;;16.20;99.90;;;;;;5020548;28;20052;-55
2023/09/18 04:38:21;;;;;;;8.25;7.45;;;16.20;99.90;;;;;;5020185;28;20026;-55
2023/09/18 04:40:47;;;;;;;9.57;8.57;;;16.20;99.90;;;;;;5024783;28;20022;-55
2023/09/18 04:43:12;;;;;;;11.15;8.45;;;16.20;99.90;;;;;;5025709;28;20029;-55
2023/09/18 04:45:38;;;;;;;9.95;7.90;;;16.20;99.90;;;;;;5022085;28;20366;-55
2023/09/18 04:48:05;;;;;;;9.98;7.07;;;16.20;99.90;;;;;;5018406;28;20045;-55
2023/09/18 04:50:31;;;;;;;8.73;7.82;;;16.20;99.90;;;;;;5021334;28;20036;-55
2023/09/18 04:52:57;;;;;;;8.43;7.60;;;16.20;99.90;;;;;;5020228;28;20502;-54
2023/09/18 04:55:23;;;;;;;10.02;7.78;;;16.30;99.90;;;;;;5022576;28;20033;-54
2023/09/18 04:57:48;;;;;;;8.68;7.82;;;16.30;99.90;;;;;;5020963;28;20055;-54
2023/09/18 05:00:14;;;;;;;9.43;7.97;;;16.30;99.90;;;;;;5017701;28;20037;-55
2023/09/18 05:02:40;;;;;;;9.95;7.85;;;16.30;99.90;;;;;;5022749;28;20057;-55
2023/09/18 05:05:08;;;;;;;7.85;7.13;;;16.30;99.90;;;;;;5020485;28;20061;-55
2023/09/18 05:07:34;;;;;;;9.93;7.97;;;16.30;99.90;;;;;;5023433;28;20304;-55
2023/09/18 05:10:00;;;;;;;9.18;7.68;;;16.40;99.90;;;;;;5024905;28;20067;-55
2023/09/18 05:12:25;;;;;;;8.80;7.80;;;16.40;99.90;;;;;;5024364;28;20037;-54
2023/09/18 05:14:51;;;;;;;8.88;7.82;;;16.50;99.90;;;;;;5015603;28;20033;-54
2023/09/18 05:17:17;;;;;;;10.40;8.05;;;16.60;99.90;;;;;;5018085;28;20026;-55
2023/09/18 05:19:44;;;;;;;9.20;8.25;;;16.60;99.90;;;;;;5019434;28;20036;-55
2023/09/18 05:22:10;;;;;;;10.70;8.40;;;16.60;99.90;;;;;;5019090;28;20100;-54
2023/09/18 05:24:37;;;;;;;8.00;6.75;;;16.70;99.90;;;;;;5019118;28;20571;-55
2023/09/18 05:27:03;;;;;;;8.98;7.80;;;16.70;99.90;;;;;;5018804;28;20340;-55
2023/09/18 05:29:28;;;;;;;9.57;7.70;;;16.80;99.90;;;;;;5023917;28;20025;-54
2023/09/18 05:31:54;;;;;;;10.43;7.30;;;16.80;99.90;;;;;;5020762;28;20541;-54
2023/09/18 05:34:19;;;;;;;8.32;6.75;;;16.90;99.90;;;;;;5022290;28;20099;-55
2023/09/18 05:36:45;;;;;;;8.32;7.35;;;16.90;99.90;;;;;;5025955;28;20032;-54
2023/09/18 05:39:12;;;;;;;8.68;7.32;;;17.00;99.90;;;;;;5021735;28;20033;-54
2023/09/18 05:41:39;;;;;;;17.52;7.80;;;17.00;99.90;;;;;;5016007;28;20594;-54
2023/09/18 05:44:07;;;;;;;10.82;7.70;;;17.10;99.90;;;;;;5027296;28;20028;-54
2023/09/18 05:46:34;;;;;;;9.27;7.45;;;17.10;99.90;;;;;;5024211;28;20017;-54
2023/09/18 05:49:00;;;;;;;8.85;7.35;;;17.20;99.90;;;;;;5023723;28;20084;-55
2023/09/18 05:51:26;;;;;;;7.65;6.65;;;17.20;99.90;;;;;;5020512;28;20490;-56
2023/09/18 05:53:52;;;;;;;8.77;6.60;;;17.30;99.90;;;;;;5037580;28;20479;-54
2023/09/18 05:56:17;;;;;;;8.20;6.75;;;17.30;99.90;;;;;;5017553;28;20170;-54
2023/09/18 05:58:43;;;;;;;9.38;6.30;;;17.40;99.90;;;;;;5021587;28;20092;-54
2023/09/18 06:01:09;;;;;;;8.52;7.63;;;17.50;99.90;;;;;;5021688;28;20026;-54
2023/09/18 06:03:37;;;;;;;8.65;6.68;;;17.50;99.90;;;;;;5025615;28;20028;-54
2023/09/18 06:06:04;;;;;;;8.20;6.40;;;17.60;99.90;;;;;;5020000;28;20029;-53
2023/09/18 06:08:31;;;;;;;6.88;6.10;;;17.70;99.90;;;;;;5024514;28;20061;-54
2023/09/18 06:10:57;;;;;;;10.20;6.82;;;17.70;99.90;;;;;;5023532;28;20034;-54
2023/09/18 06:13:25;;;;;;;8.00;6.90;;;17.80;99.90;;;;;;5023905;28;20053;-54
2023/09/18 06:15:54;;;;;;;9.00;6.22;;;17.90;99.90;;;;;;5025615;28;20088;-53
2023/09/18 06:18:20;;;;;;;8.10;6.75;;;18.00;99.90;;;;;;5021136;28;20028;-53
2023/09/18 06:20:46;;;;;;;13.50;7.45;;;18.10;99.90;;;;;;5023592;28;20039;-53
2023/09/18 06:23:12;;;;;;;9.40;7.20;;;18.20;99.90;;;;;;5025550;28;20025;-54
2023/09/18 06:25:38;;;;;;;7.93;6.90;;;18.30;99.90;;;;;;5019915;28;20021;-54
2023/09/18 06:28:04;;;;;;;10.77;6.60;;;18.40;99.90;;;;;;5025368;28;20053;-53
2023/09/18 06:30:33;;;;;;;7.38;6.40;;;18.60;99.90;;;;;;5025137;28;20076;-54
2023/09/18 06:32:59;;;;;;;6.70;6.00;;;18.80;99.90;;;;;;5029699;28;20501;-54
2023/09/18 06:35:24;;;;;;;8.15;5.90;;;18.90;99.90;;;;;;5021918;28;20494;-54
2023/09/18 06:37:50;;;;;;;8.27;6.55;;;19.10;99.90;;;;;;5029033;28;20042;-55
2023/09/18 06:40:16;;;;;;;7.88;6.20;;;19.20;99.90;;;;;;5028310;28;20056;-55
2023/09/18 06:42:41;;;;;;;8.77;6.45;;;19.50;99.90;;;;;;5021348;28;20572;-55
2023/09/18 06:45:07;;;;;;;6.20;5.40;;;19.70;99.90;;;;;;5029398;28;20020;-55
2023/09/18 06:47:33;;;;;;;6.43;5.57;;;19.90;99.90;;;;;;5025957;28;20058;-55
2023/09/18 06:50:00;;;;;;;7.43;5.10;;;20.00;99.90;;;;;;5015804;28;20045;-55
2023/09/18 06:52:26;;;;;;;7.72;5.32;;;20.20;99.90;;;;;;5024161;28;20028;-54
2023/09/18 06:54:52;;;;;;;7.72;5.28;;;20.40;99.90;;;;;;5029237;28;20021;-54
2023/09/18 06:57:18;;;;;;;5.70;5.20;;;20.50;99.90;;;;;;5030332;28;20025;-55
2023/09/18 06:59:44;;;;;;;6.10;4.97;;;20.50;99.90;;;;;;5026765;28;20108;-55
2023/09/18 07:02:10;;;;;;;6.13;5.53;;;20.70;99.90;;;;;;5023234;28;20218;-55
2023/09/18 07:04:35;;;;;;;6.05;4.80;;;20.80;99.90;;;;;;5021709;28;20025;-55
2023/09/18 07:07:01;;;;;;;7.72;5.60;;;20.90;99.90;;;;;;5029150;28;20030;-55
2023/09/18 07:09:26;;;;;;;6.53;4.72;;;21.00;99.90;;;;;;5030516;28;20268;-54
2023/09/18 07:11:52;;;;;;;6.22;5.20;;;21.10;99.90;;;;;;5027698;28;20084;-55
2023/09/18 07:14:17;;;;;;;7.35;4.90;;;21.20;99.90;;;;;;5029412;28;20229;-54
2023/09/18 07:16:43;;;;;;;4.88;4.45;;;21.20;99.90;;;;;;5028073;28;20096;-55
2023/09/18 07:19:11;;;;;;;5.65;4.97;;;21.30;99.90;;;;;;5030279;28;20092;-55
2023/09/18 07:21:38;;;;;;;7.18;4.47;;;21.30;99.90;;;;;;5028232;28;20021;-55
2023/09/18 07:24:04;;;;;;;5.38;4.88;;;21.40;99.90;;;;;;5026502;28;20062;-55
2023/09/18 07:26:29;;;;;;;6.18;5.25;;;21.40;99.90;;;;;;5029226;28;20057;-54
2023/09/18 07:28:55;;;;;;;5.63;5.05;;;21.30;99.90;;;;;;5021815;28;20113;-54
2023/09/18 07:31:20;;;;;;;5.45;4.70;;;21.30;99.90;;;;;;5027611;28;20474;-54
2023/09/18 07:33:46;;;;;;;5.05;4.60;;;21.30;99.90;;;;;;5023546;28;20542;-54
2023/09/18 07:36:12;;;;;;;7.38;5.57;;;21.20;99.90;;;;;;5029123;28;20329;-54
2023/09/18 07:38:37;;;;;;;6.50;5.72;;;21.20;99.90;;;;;;5024812;28;20044;-55
2023/09/18 07:41:03;;;;;;;5.43;4.93;;;21.20;99.90;;;;;;5029600;28;20021;-55
2023/09/18 07:43:29;;;;;;;7.05;5.22;;;21.10;99.90;;;;;;5027780;28;20022;-54
2023/09/18 07:45:54;;;;;;;6.28;5.30;;;21.10;99.90;;;;;;5028513;28;20033;-55
2023/09/18 07:48:21;;;;;;;8.32;5.25;;;21.10;99.90;;;;;;5028865;28;20037;-54
2023/09/18 07:50:49;;;;;;;7.00;5.43;;;21.00;99.90;;;;;;5021146;28;20169;-54
2023/09/18 07:53:15;;;;;;;7.32;5.15;;;21.00;99.90;;;;;;5026657;28;20053;-55
2023/09/18 07:55:40;;;;;;;7.30;5.32;;;21.00;99.90;;;;;;5021155;28;20107;-55
2023/09/18 07:58:06;;;;;;;11.95;5.20;;;21.00;99.90;;;;;;5023983;28;20471;-54
2023/09/18 08:00:33;;;;;;;5.13;4.65;;;21.00;99.90;;;;;;5028768;28;20106;-54
2023/09/18 08:03:00;;;;;;;8.35;5.78;;;21.00;99.90;;;;;;5030275;28;20036;-54
2023/09/18 08:05:28;;;;;;;5.93;5.22;;;21.10;99.90;;;;;;5027160;28;20025;-54
2023/09/18 08:07:56;;;;;;;6.95;5.65;;;21.20;99.90;;;;;;5027439;28;20050;-54
2023/09/18 08:10:23;;;;;;;6.57;5.78;;;21.30;99.90;;;;;;5028779;28;20026;-54
2023/09/18 08:12:51;;;;;;;7.38;5.47;;;21.30;99.90;;;;;;5024421;28;20387;-54
2023/09/18 08:15:17;;;;;;;7.72;5.10;;;21.40;99.90;;;;;;5022494;28;20026;-54
2023/09/18 08:17:43;;;;;;;6.25;5.43;;;21.40;99.90;;;;;;5021482;28;20043;-54
2023/09/18 08:20:13;;;;;;;8.68;5.20;;;21.50;99.90;;;;;;5021669;28;20554;-54
2023/09/18 08:22:40;;;;;;;6.35;5.75;;;21.60;99.90;;;;;;5021608;28;20033;-54
2023/09/18 08:25:07;;;;;;;7.55;5.15;;;21.70;99.90;;;;;;5019657;28;20018;-54
2023/09/18 08:27:33;;;;;;;8.25;5.05;;;21.80;99.90;;;;;;5020990;28;20033;-54
2023/09/18 08:29:59;;;;;;;7.45;5.55;;;21.90;99.90;;;;;;5024604;28;20593;-54
2023/09/18 08:32:24;;;;;;;13.63;5.65;;;22.00;99.90;;;;;;5018117;28;20128;-55
2023/09/18 08:34:50;;;;;;;7.18;5.88;;;22.00;99.90;;;;;;5024731;28;20025;-53
2023/09/18 08:37:15;;;;;;;7.53;5.63;;;22.10;99.90;;;;;;5018577;28;20124;-53
2023/09/18 08:39:41;;;;;;;8.60;4.80;;;22.10;99.90;;;;;;5039058;28;20025;-54
2023/09/18 08:42:09;;;;;;;6.50;5.25;;;22.20;99.90;;;;;;5019486;28;20438;-54
2023/09/18 08:44:38;;;;;;;5.97;5.38;;;22.30;99.90;;;;;;5021532;28;20049;-54
2023/09/18 08:47:06;;;;;;;7.95;5.28;;;22.50;99.90;;;;;;5022742;28;20033;-55
2023/09/18 08:49:32;;;;;;;6.32;5.60;;;22.80;99.90;;;;;;5019871;28;20022;-55
2023/09/18 08:51:59;;;;;;;5.90;5.30;;;23.40;99.90;;;;;;5018834;28;20037;-55
2023/09/18 08:54:24;;;;;;;5.38;4.45;;;24.50;99.90;;;;;;5020826;28;20442;-55
2023/09/18 08:56:51;;;;;;;4.57;4.18;;;24.90;99.90;;;;;;5019272;28;20042;-55
2023/09/18 08:59:21;;;;;;;5.78;5.15;;;25.10;99.90;;;;;;5020534;28;20091;-56
2023/09/18 09:01:46;;;;;;;6.80;4.60;;;24.90;99.90;;;;;;5016394;28;20022;-55
2023/09/18 09:04:12;;;;;;;5.55;4.60;;;24.70;99.90;;;;;;5020486;28;20040;-55
2023/09/18 09:06:38;;;;;;;10.77;4.93;;;24.50;99.90;;;;;;5018189;28;20038;-55
2023/09/18 09:09:03;;;;;;;5.65;4.60;;;24.20;99.90;;;;;;5019582;28;20029;-56
2023/09/18 09:11:29;;;;;;;6.47;4.63;;;23.90;99.90;;;;;;5024202;28;20082;-56
2023/09/18 09:14:30;;;;;;;8.82;5.40;;;23.80;99.90;;;;;;5019267;28;20026;-56
2023/09/18 09:16:59;;;;;;;5.20;4.70;;;23.60;99.90;;;;;;5016709;28;20034;-56
2023/09/18 09:19:38;;;;;;;5.20;4.50;;;23.40;99.90;;;;;;5023374;28;20379;-56
2023/09/18 09:22:04;;;;;;;5.68;4.72;;;23.30;99.90;;;;;;5021150;28;20032;-56
2023/09/18 09:24:43;;;;;;;7.38;4.65;;;23.30;99.90;;;;;;5027189;28;20029;-56
2023/09/18 09:27:10;;;;;;;7.28;5.00;;;23.20;99.90;;;;;;5027515;28;20021;-56
2023/09/18 09:29:36;;;;;;;7.30;5.20;;;23.10;99.90;;;;;;5021645;28;20024;-56
2023/09/18 09:32:16;;;;;;;5.80;5.05;;;23.10;99.90;;;;;;5028053;28;20022;-56
2023/09/18 09:34:42;;;;;;;6.82;4.70;;;23.10;99.90;;;;;;5049028;28;20493;-56
2023/09/18 09:37:08;;;;;;;9.40;4.78;;;23.20;99.90;;;;;;5021433;28;20082;-56
2023/09/18 09:39:34;;;;;;;8.18;5.05;;;23.20;99.90;;;;;;5015655;28;20049;-56
2023/09/18 09:42:03;;;;;;;8.55;5.03;;;23.10;99.90;;;;;;5022693;28;20025;-56
2023/09/18 09:44:32;;;;;;;9.07;4.80;;;23.30;99.90;;;;;;5010560;28;20097;-56
2023/09/18 09:46:59;;;;;;;8.45;4.63;;;23.40;99.90;;;;;;5014166;28;20083;-56
2023/09/18 09:49:27;;;;;;;11.88;4.75;;;23.40;99.90;;;;;;5028111;28;20049;-56
2023/09/18 09:51:54;;;;;;;10.52;4.43;;;23.50;99.90;;;;;;5038361;28;20022;-56
2023/09/18 09:54:34;;;;;;;10.77;4.72;;;23.60;99.90;;;;;;5012912;28;20563;-56
2023/09/18 09:57:02;;;;;;;8.25;4.47;;;23.70;99.90;;;;;;5018011;28;20045;-56
2023/09/18 09:59:29;;;;;;;9.90;4.55;;;23.70;99.90;;;;;;5022652;28;20050;-56
2023/09/18 10:01:58;;;;;;;7.60;3.95;;;23.90;99.90;;;;;;5021655;28;20024;-56
2023/09/18 10:04:26;;;;;;;12.45;4.50;;;24.00;99.90;;;;;;5019680;28;20479;-56
2023/09/18 10:07:05;;;;;;;13.73;5.32;;;24.10;99.90;;;;;;5017836;28;20033;-56
2023/09/18 10:09:38;;;;;;;7.28;4.07;;;24.20;99.90;;;;;;5026364;28;20103;-56
2023/09/18 10:12:15;;;;;;;7.68;4.20;;;24.30;99.90;;;;;;5021226;28;20121;-56
2023/09/18 10:14:42;;;;;;;12.90;3.95;;;24.70;99.90;;;;;;5022142;28;20080;-56
2023/09/18 10:17:17;;;;;;;9.95;3.90;;;25.00;99.90;;;;;;5032262;28;20033;-56
2023/09/18 10:20:16;;;;;;;11.27;3.70;;;25.10;99.90;;;;;;5014951;28;20025;-56
2023/09/18 10:22:46;;;;;;;7.30;3.60;;;25.10;99.90;;;;;;5016856;28;20113;-56
2023/09/18 10:25:17;;;;;;;9.25;3.78;;;25.10;99.90;;;;;;5028496;28;20021;-56
2023/09/18 10:27:49;;;;;;;13.48;3.95;;;25.00;99.60;;;;;;5024131;28;20025;-55
2023/09/18 10:30:18;;;;;;;10.20;3.28;;;24.80;99.80;;;;;;5026851;28;20053;-55
2023/09/18 10:32:48;;;;;;;6.63;2.95;;;24.60;99.90;;;;;;5021138;28;20032;-55
2023/09/18 10:35:14;;;;;;;9.98;3.25;;;24.60;99.90;;;;;;5019545;28;20619;-57
2023/09/18 10:37:42;;;;;;;4.45;3.03;;;24.60;99.90;;;;;;5031025;28;20124;-55
2023/09/18 10:40:09;;;;;;;8.52;3.83;;;24.70;99.90;;;;;;5022039;28;20021;-54
2023/09/18 10:42:37;;;;;;;9.82;3.35;;;24.70;99.50;;;;;;5035323;28;20033;-54
2023/09/18 10:45:06;;;;;;;8.95;3.72;;;24.60;99.50;;;;;;5017129;28;20040;-54
2023/09/18 10:47:33;;;;;;;12.73;3.63;;;24.60;99.30;;;;;;5015022;28;20022;-54
2023/09/18 10:50:00;;;;;;;10.07;3.90;;;24.50;99.60;;;;;;5020397;28;20021;-55
2023/09/18 10:52:26;;;;;;;12.35;4.20;;;24.40;99.60;;;;;;5017180;28;20022;-54
2023/09/18 10:54:52;;;;;;;12.07;4.05;;;24.40;99.90;;;;;;5016672;28;20202;-54
2023/09/18 10:57:18;;;;;;;10.45;3.83;;;24.20;99.90;;;;;;5014113;28;20034;-54
2023/09/18 10:59:45;;;;;;;10.73;3.33;;;24.20;99.90;;;;;;5015103;28;20492;-54
2023/09/18 11:02:15;;;;;;;7.90;3.60;;;24.20;99.90;;;;;;5022891;28;20021;-54
2023/09/18 11:04:42;;;;;;;7.65;3.35;;;24.10;99.90;;;;;;5023173;28;20036;-54
2023/09/18 11:07:09;;;;;;;15.85;4.45;;;24.10;99.90;;;;;;5021351;28;20057;-54
2023/09/18 11:09:45;;;;;;;10.00;4.18;;;23.90;99.90;;;;;;5016970;28;20057;-54
2023/09/18 11:12:13;;;;;;;13.80;4.50;;;24.00;99.90;;;;;;5017005;28;20399;-54
2023/09/18 11:14:52;;;;;;;11.52;4.85;;;24.00;99.90;;;;;;5024647;28;20033;-55
2023/09/18 11:17:36;;;;;;;9.15;3.60;;;23.90;99.90;;;;;;5019668;28;20396;-54
2023/09/18 11:20:23;;;;;;;12.05;3.53;;;23.90;99.90;;;;;;5034210;28;20108;-54
2023/09/18 11:22:56;;;;;;;13.00;4.47;;;23.90;99.90;;;;;;5018489;28;20018;-54
2023/09/18 11:25:47;;;;;;;8.27;3.20;;;24.10;99.90;;;;;;5015411;28;20041;-55
2023/09/18 11:28:17;;;;;;;7.47;3.47;;;24.30;99.90;;;;;;5022598;28;20025;-54
2023/09/18 11:30:58;;;;;;;12.98;4.13;;;24.50;99.90;;;;;;5019962;28;20034;-54
2023/09/18 11:33:34;;;;;;;10.48;3.67;;;24.70;99.90;;;;;;5028412;28;20029;-55
2023/09/18 11:36:22;;;;;;;14.63;3.83;;;24.80;99.90;;;;;;5016535;28;20033;-55
2023/09/18 11:39:03;;;;;;;11.98;4.30;;;25.10;99.90;;;;;;5025443;28;20037;-55
2023/09/18 11:41:39;;;;;;;13.75;4.03;;;25.30;99.40;;;;;;5019961;28;20021;-54
2023/09/18 11:44:11;;;;;;;10.30;4.13;;;25.40;99.20;;;;;;5020894;28;20031;-54
2023/09/18 11:46:41;;;;;;;11.65;3.60;;;25.30;99.70;;;;;;5035522;28;20033;-54
2023/09/18 11:49:09;;;;;;;7.30;3.35;;;25.40;99.20;;;;;;5014360;28;20120;-54
2023/09/18 11:51:36;;;;;;;9.52;3.85;;;25.50;99.10;;;;;;5031513;28;20033;-54
2023/09/18 11:54:03;;;;;;;12.00;3.53;;;25.50;98.70;;;;;;5015634;28;20041;-54
2023/09/18 11:56:29;;;;;;;13.98;3.67;;;25.60;98.80;;;;;;5012030;28;20050;-54
2023/09/18 11:58:56;;;;;;;6.93;3.20;;;25.90;98.50;;;;;;5022110;28;20030;-54
2023/09/18 12:01:24;;;;;;;12.05;3.70;;;26.00;98.40;;;;;;5014170;28;20022;-54
2023/09/18 12:03:54;;;;;;;11.75;3.53;;;26.00;97.90;;;;;;5019476;28;20022;-54
2023/09/18 12:06:21;;;;;;;;;;;26.10;98.30;;;;;;5020599;28;20415;-54
2023/09/18 12:08:48;;;;;;;10.18;3.20;;;26.00;98.50;;;;;;5019004;28;20422;-54
2023/09/18 12:11:19;;;;;;;6.78;3.20;;;26.00;97.90;;;;;;5014151;28;20028;-54
2023/09/18 12:13:50;;;;;;;6.30;2.92;;;25.90;98.40;;;;;;5019382;28;20029;-54
2023/09/18 12:16:16;;;;;;;10.73;3.75;;;25.90;98.00;;;;;;5035047;28;20152;-54
2023/09/18 12:18:47;;;;;;;8.35;3.67;;;25.70;97.90;;;;;;5016865;28;20113;-54
2023/09/18 12:21:14;;;;;;;9.98;3.33;;;25.60;98.00;;;;;;5013798;28;20063;-54
2023/09/18 12:23:40;;;;;;;10.52;3.53;;;25.50;98.20;;;;;;5017651;28;20402;-54
2023/09/18 12:26:07;;;;;;;9.50;3.40;;;25.50;98.10;;;;;;5017436;28;20318;-56
2023/09/18 12:28:35;;;;;;;10.18;3.90;;;25.60;98.00;;;;;;5021060;28;20083;-54
2023/09/18 12:31:04;;;;;;;9.25;3.25;;;25.60;98.30;;;;;;5020606;28;20030;-55
2023/09/18 12:33:33;;;;;;;8.38;2.75;;;25.50;97.90;;;;;;5019215;28;20029;-54
2023/09/18 12:35:59;;;;;;;7.18;2.88;;;25.40;98.20;;;;;;5015315;28;20041;-54
2023/09/18 12:38:27;;;;;;;10.15;2.70;;;25.80;97.40;;;;;;5023809;28;20637;-54
2023/09/18 12:40:53;;;;;;;15.60;3.92;;;26.00;97.90;;;;;;5023126;28;20128;-54
2023/09/18 12:43:22;;;;;;;13.93;3.20;;;26.50;97.60;;;;;;5017845;28;20491;-54
2023/09/18 12:45:49;;;;;;;11.82;2.88;;;27.00;97.40;;;;;;5017382;28;20124;-55
2023/09/18 12:48:15;;;;;;;8.75;2.90;;;27.30;96.10;;;;;;5017467;28;20022;-54